West University Place, Texas
Current Conditions -  °F | °C
As of 6:55 PM on Saturday 22 Nov 2014 (Local Time) from KMCJ Reporting Station
Overcast Overcast  
Wind Chill: 64°   Ceiling: 4300
Heat Index: 64°   Visibility: 3mi
Dew Point: 64°   Wind: 13mph
Humidity: 100%   Direction: 100°E
Pressure: 29.78"   Gusts: NA
Location:  29.7181°N, 95.4241°W
Report Text: KMCJ 230055Z AUTO 10011KT 3SM FEW019 OVC043 18/18 A2978 RMK AO1
Loading
Personal Weather Stations






























Interactive Weather Map New forecast layout! Learn more

10-Day Weather Forecast

Advertisements
Track Severe Weather on mobile